Portada
METAR-TAF:

METAR-TAF

Aeropuertos :

Aeropuerto Internacional de Túnez-Cartago

Túnez, Túnez

latitud: 36-50N, longitud: 010-14E, altitud: 3 m

Observación

El informe se hizo hace 14 minutos, a las 22:00 UTC
Viento 12 kt del noroeste
Temperatura 22°C
Humedad 78%
Presión 1017 hPa
Visibilidad 10 km o más
Escasas nubes a una altura de 3000 ft

METAR: DTTA 192200Z 31012KT 9999 FEW030 22/18 Q1017 NOSIG

Hora: 23:14 (22:14 UTC)

Pronóstico

El informe se hizo hace 5 horas y 14 minutos, a las 17:00 UTC
Pronóstico válido del 19 a las 18 UTC al 20 a las 18 UTC
Viento 15 kt del noroeste
Visibilidad 10 km o más
sin nubes por debajo de 1500 m y sin presencia de cumulonimbus.
Probabilidad 30% :
Temporalmente
del 20 a las 15 UTC al 20 a las 18 UTC
Visibilidad: 4000 m
Escasas nubes a una altura de 2300 ft, Cumulonimbus.
tormenta, lluvia ligera

TAF: DTTA 191700Z 1918/2018 32015KT CAVOK PROB30 TEMPO 2015/2018 4000 -TSRA FEW023CB

Observaciones y pronósticos meteorológicos de más de 4000 aeropuertos (mensajes METAR y TAF).

Los puntos amarillos y rojos representan las estaciones disponibles.

Ponga el ratón en el punto deseado para ver el nombre de la estación.

Haga clic para ver las observaciones y los pronósticos meteorológicos.

Para cambiar el mapa : haga clic en los botones verdes con una cruz de color negro para hacer un zoom, en el botón verde con un guión para alejar o en las flechas verdes para mapas adyacentes.


METAR-TAF: